Time;durP1;ratioP1;P1;durP2;ratioP2;P2;SDS_P1;SDS_P2;PMS_P1;PMS_P2;Temp;Humidity;BMP_temperature;BMP_pressure;BME280_temperature;BME280_humidity;BME280_pressure;Samples;Min_cycle;Max_cycle;Signal;HPM_P1;HPM_P2
2022/08/01 00:00:31;;;;;;;5.15;3.20;;;;;;;17.02;100.00;101573.31;4900474;28;20039;-77
2022/08/01 00:02:56;;;;;;;3.75;3.00;;;;;;;17.01;100.00;101565.34;4916419;28;20031;-77
2022/08/01 00:05:22;;;;;;;4.93;3.00;;;;;;;17.00;100.00;101568.97;4897581;28;20036;-77
2022/08/01 00:07:48;;;;;;;5.70;3.15;;;;;;;16.96;100.00;101569.16;4895763;29;20047;-76
2022/08/01 00:10:15;;;;;;;4.45;3.03;;;;;;;16.95;100.00;101571.94;4878907;29;20043;-78
2022/08/01 00:12:42;;;;;;;4.07;2.88;;;;;;;16.94;100.00;101570.22;4882394;29;20146;-77
2022/08/01 00:15:09;;;;;;;3.88;3.28;;;;;;;16.93;100.00;101574.69;4882206;29;20093;-77
2022/08/01 00:17:35;;;;;;;3.55;3.08;;;;;;;16.92;100.00;101572.13;4866163;29;20084;-77
2022/08/01 00:20:02;;;;;;;4.53;2.97;;;;;;;16.92;100.00;101574.78;4884762;29;20039;-78
2022/08/01 00:22:28;;;;;;;7.93;3.30;;;;;;;16.88;100.00;101587.47;4898447;28;20052;-77
2022/08/01 00:24:56;;;;;;;3.50;2.90;;;;;;;16.86;100.00;101581.38;4881079;29;20071;-77
2022/08/01 00:27:22;;;;;;;3.92;2.90;;;;;;;16.83;100.00;101584.22;4899756;29;20440;-77
2022/08/01 00:29:48;;;;;;;4.13;3.08;;;;;;;16.79;100.00;101585.38;4897724;29;20039;-77
2022/08/01 00:32:13;;;;;;;5.30;3.25;;;;;;;16.77;100.00;101590.81;4898317;29;20538;-77
2022/08/01 00:34:39;;;;;;;5.88;3.75;;;;;;;16.75;100.00;101584.69;4896994;29;20440;-77
2022/08/01 00:37:04;;;;;;;5.35;3.58;;;;;;;16.74;100.00;101587.47;4898917;29;20036;-77
2022/08/01 00:39:32;;;;;;;8.27;4.20;;;;;;;16.73;100.00;101583.06;4880998;29;20530;-77
2022/08/01 00:41:58;;;;;;;4.93;3.50;;;;;;;16.73;100.00;101596.44;4884854;29;23466;-77
2022/08/01 00:44:23;;;;;;;7.20;3.80;;;;;;;16.71;100.00;101583.16;4898375;29;20040;-77
2022/08/01 00:46:48;;;;;;;10.18;4.10;;;;;;;16.68;100.00;101586.88;4895694;29;20051;-77
2022/08/01 00:49:14;;;;;;;6.88;3.78;;;;;;;16.65;100.00;101576.38;4880839;29;20036;-77
2022/08/01 00:51:40;;;;;;;7.60;3.70;;;;;;;16.63;100.00;101583.63;4898935;29;20126;-77
2022/08/01 00:54:05;;;;;;;6.78;4.05;;;;;;;16.62;100.00;101584.56;4895823;29;20554;-77
2022/08/01 00:56:31;;;;;;;6.85;3.83;;;;;;;16.61;100.00;101590.03;4896669;29;20051;-77
2022/08/01 00:58:56;;;;;;;7.03;3.92;;;;;;;16.60;100.00;101589.16;4895941;29;20032;-78
2022/08/01 01:01:23;;;;;;;8.60;3.70;;;;;;;16.58;100.00;101596.41;4895957;29;20517;-77
2022/08/01 01:03:52;;;;;;;6.15;3.70;;;;;;;16.58;100.00;101593.72;4865962;29;20269;-77
2022/08/01 01:06:44;;;;;;;6.28;3.70;;;;;;;16.56;100.00;101598.28;4895719;29;20173;-77
2022/08/01 01:09:38;;;;;;;7.13;3.80;;;;;;;16.57;100.00;101600.03;4912238;28;20080;-77
2022/08/01 01:12:30;;;;;;;6.57;3.40;;;;;;;16.54;100.00;101594.84;4915773;28;20761;-77
2022/08/01 01:15:16;;;;;;;3.63;2.97;;;;;;;16.52;100.00;101591.41;4900638;28;20043;-78
2022/08/01 01:17:54;;;;;;;6.05;3.22;;;;;;;16.53;100.00;101587.78;4882111;28;20031;-77
2022/08/01 01:20:21;;;;;;;5.05;3.45;;;;;;;16.52;100.00;101588.75;4899867;28;20031;-76
2022/08/01 01:22:53;;;;;;;5.78;2.85;;;;;;;16.51;100.00;101589.69;4914378;28;20693;-77
2022/08/01 01:25:36;;;;;;;3.47;2.40;;;;;;;16.49;100.00;101586.22;4916139;28;20110;-77
2022/08/01 01:28:27;;;;;;;4.05;2.78;;;;;;;16.46;100.00;101583.75;4897353;28;20044;-77
2022/08/01 01:30:55;;;;;;;4.93;2.60;;;;;;;16.43;100.00;101588.34;4898112;28;20402;-77
2022/08/01 01:33:21;;;;;;;5.50;2.70;;;;;;;16.41;100.00;101584.03;4882512;28;20853;-77
2022/08/01 01:35:50;;;;;;;4.68;2.60;;;;;;;16.38;100.00;101586.88;4900896;28;20401;-77
2022/08/01 01:38:19;;;;;;;3.85;2.00;;;;;;;16.33;100.00;101592.47;4917007;28;21157;-76
2022/08/01 01:40:46;;;;;;;4.05;1.95;;;;;;;16.30;100.00;101595.34;4918026;28;20516;-77
2022/08/01 01:43:13;;;;;;;3.38;2.28;;;;;;;16.30;100.00;101598.03;4889769;28;20391;-77
2022/08/01 01:45:39;;;;;;;3.08;1.92;;;;;;;16.30;100.00;101595.34;4905753;28;20043;-77
2022/08/01 01:48:06;;;;;;;3.90;1.95;;;;;;;16.31;100.00;101607.75;4916040;28;20043;-76
2022/08/01 01:50:35;;;;;;;4.03;2.47;;;;;;;16.31;100.00;101602.41;4916036;28;20354;-76
2022/08/01 01:53:01;;;;;;;3.55;2.30;;;;;;;16.31;100.00;101610.44;4890166;28;20043;-77
2022/08/01 01:55:28;;;;;;;5.80;2.45;;;;;;;16.30;100.00;101611.38;4890906;28;20043;-77
2022/08/01 01:57:54;;;;;;;5.10;2.33;;;;;;;16.28;100.00;101603.44;4902998;28;20039;-76
2022/08/01 02:00:19;;;;;;;3.35;2.25;;;;;;;16.28;100.00;101598.09;4916527;28;20032;-76
2022/08/01 02:02:45;;;;;;;8.20;2.50;;;;;;;16.28;100.00;101600.78;4903278;28;20101;-78
2022/08/01 02:05:12;;;;;;;5.50;2.10;;;;;;;16.28;100.00;101598.09;4888018;28;20059;-76
2022/08/01 02:07:39;;;;;;;5.53;2.40;;;;;;;16.29;100.00;101612.34;4914429;28;20055;-75
2022/08/01 02:10:05;;;;;;;3.38;2.38;;;;;;;16.28;100.00;101608.78;4900671;28;21424;-76
2022/08/01 02:12:34;;;;;;;6.03;2.25;;;;;;;16.26;100.00;101616.03;4883677;28;20043;-77
2022/08/01 02:14:59;;;;;;;6.80;2.70;;;;;;;16.23;100.00;101615.34;4888794;28;20043;-76
2022/08/01 02:17:26;;;;;;;6.18;2.85;;;;;;;16.23;100.00;101615.34;4903439;28;20857;-76
2022/08/01 02:19:53;;;;;;;7.32;2.38;;;;;;;16.22;100.00;101606.47;4901073;28;20031;-76
2022/08/01 02:22:25;;;;;;;5.75;2.50;;;;;;;16.21;100.00;101617.22;4900291;28;20047;-76
2022/08/01 02:25:06;;;;;;;5.63;2.42;;;;;;;16.20;100.00;101613.72;4917036;28;20041;-76
2022/08/01 02:27:35;;;;;;;3.13;2.17;;;;;;;16.19;100.00;101611.13;4902490;28;20031;-76
2022/08/01 02:30:06;;;;;;;5.80;2.67;;;;;;;16.19;100.00;101603.09;4888461;28;20035;-76
2022/08/01 02:32:38;;;;;;;6.30;2.47;;;;;;;16.17;100.00;101613.03;4902204;28;20046;-76
2022/08/01 02:35:07;;;;;;;6.90;2.97;;;;;;;16.15;100.00;101611.31;4897991;28;20126;-76
2022/08/01 02:37:34;;;;;;;7.47;2.75;;;;;;;16.17;100.00;101618.38;4916840;28;20054;-76
2022/08/01 02:40:00;;;;;;;4.97;2.80;;;;;;;16.17;100.00;101613.03;4898822;28;20042;-76
2022/08/01 02:42:27;;;;;;;7.15;3.50;;;;;;;16.14;100.00;101612.22;4902613;28;20047;-76
2022/08/01 02:44:53;;;;;;;5.38;2.75;;;;;;;16.14;100.00;101620.25;4898661;28;20066;-75
2022/08/01 02:47:20;;;;;;;5.22;2.75;;;;;;;16.13;100.00;101629.22;4917102;28;20065;-75
2022/08/01 02:49:48;;;;;;;5.57;2.75;;;;;;;16.11;100.00;101633.78;4901626;28;20082;-76
2022/08/01 02:52:16;;;;;;;5.65;2.70;;;;;;;16.11;100.00;101619.56;4888199;28;20042;-76
2022/08/01 02:54:43;;;;;;;4.40;2.55;;;;;;;16.10;100.00;101624.06;4914460;28;20486;-76
2022/08/01 02:57:09;;;;;;;5.40;2.65;;;;;;;16.07;100.00;101624.22;4899787;28;20155;-76
2022/08/01 02:59:37;;;;;;;5.40;3.05;;;;;;;16.06;100.00;101635.84;4914557;28;20043;-76
2022/08/01 03:02:04;;;;;;;7.68;2.70;;;;;;;16.05;100.00;101630.59;4902100;28;20488;-76
2022/08/01 03:04:33;;;;;;;5.80;2.70;;;;;;;16.02;100.00;101631.66;4916081;28;20043;-76
2022/08/01 03:07:00;;;;;;;4.38;2.67;;;;;;;16.00;100.00;101639.75;4914205;28;20038;-76
2022/08/01 03:09:27;;;;;;;6.35;3.05;;;;;;;15.99;100.00;101642.50;4917002;28;20137;-76
2022/08/01 03:11:53;;;;;;;6.60;3.15;;;;;;;15.97;100.00;101641.72;4888183;28;20389;-76
2022/08/01 03:14:20;;;;;;;8.85;3.50;;;;;;;15.96;100.00;101648.00;4901038;28;20105;-76
2022/08/01 03:16:47;;;;;;;6.88;2.70;;;;;;;15.94;100.00;101660.56;4901171;28;20063;-76
2022/08/01 03:19:13;;;;;;;8.85;3.15;;;;;;;15.93;100.00;101653.50;4916771;28;20039;-76
2022/08/01 03:21:40;;;;;;;6.57;3.05;;;;;;;15.91;100.00;101655.38;4916635;28;20047;-76
2022/08/01 03:24:07;;;;;;;6.00;2.90;;;;;;;15.90;100.00;101659.84;4915732;28;20035;-76
2022/08/01 03:26:35;;;;;;;7.85;3.03;;;;;;;15.89;100.00;101664.34;4898656;28;20035;-76
2022/08/01 03:29:07;;;;;;;6.60;3.25;;;;;;;15.89;100.00;101660.78;4913986;28;20608;-76
2022/08/01 03:31:38;;;;;;;4.28;2.85;;;;;;;15.87;100.00;101660.88;4898296;28;20027;-75
2022/08/01 03:34:04;;;;;;;5.60;2.75;;;;;;;15.87;100.00;101655.53;4900732;28;20094;-75
2022/08/01 03:36:32;;;;;;;3.95;2.33;;;;;;;15.87;100.00;101660.03;4900310;28;20587;-75
2022/08/01 03:39:00;;;;;;;5.65;2.42;;;;;;;15.87;100.00;101657.34;4898788;28;20043;-75
2022/08/01 03:41:27;;;;;;;7.72;3.00;;;;;;;15.86;100.00;101661.81;4900595;28;20062;-75
2022/08/01 03:43:59;;;;;;;6.55;3.13;;;;;;;15.83;100.00;101662.00;4899581;28;20046;-75
2022/08/01 03:46:46;;;;;;;7.30;2.67;;;;;;;15.83;100.00;101671.81;4901735;28;20179;-76
2022/08/01 03:49:15;;;;;;;6.00;2.65;;;;;;;15.81;100.00;101663.03;4914556;28;20162;-75
2022/08/01 03:51:40;;;;;;;8.48;3.20;;;;;;;15.80;100.00;101669.31;4916664;28;20545;-76
2022/08/01 03:54:06;;;;;;;7.60;3.25;;;;;;;15.77;100.00;101667.69;4900011;28;20536;-76
2022/08/01 03:56:33;;;;;;;6.70;2.63;;;;;;;15.74;100.00;101675.84;4914163;28;20813;-76
2022/08/01 03:58:59;;;;;;;8.43;3.03;;;;;;;15.73;100.00;101676.78;4900987;28;20054;-76
2022/08/01 04:01:25;;;;;;;5.53;2.40;;;;;;;15.70;100.00;101684.97;4871188;28;20068;-75
2022/08/01 04:03:51;;;;;;;4.47;2.50;;;;;;;15.69;100.00;101681.44;4899063;28;21421;-76
2022/08/01 04:06:17;;;;;;;5.30;2.40;;;;;;;15.68;100.00;101681.53;4914167;28;20556;-76
2022/08/01 04:08:42;;;;;;;9.90;2.42;;;;;;;15.60;100.00;101688.13;4900164;28;20052;-76
2022/08/01 04:11:09;;;;;;;6.18;2.50;;;;;;;15.59;100.00;101691.72;4887553;28;20042;-76
2022/08/01 04:13:35;;;;;;;7.68;2.20;;;;;;;15.57;100.00;101690.97;4900215;28;20043;-75
2022/08/01 04:16:00;;;;;;;5.30;2.90;;;;;;;15.57;100.00;101698.09;4915351;28;20040;-75
2022/08/01 04:18:26;;;;;;;5.25;2.05;;;;;;;15.54;100.00;101701.81;4901229;28;20272;-76
2022/08/01 04:20:51;;;;;;;3.72;1.98;;;;;;;15.50;100.00;101702.91;4871662;28;20671;-75
2022/08/01 04:23:21;;;;;;;8.20;1.83;;;;;;;15.47;100.00;101705.72;4903396;28;20094;-76
2022/08/01 04:25:47;;;;;;;5.30;1.90;;;;;;;15.47;100.00;101711.06;4900559;28;20074;-76
2022/08/01 04:28:16;;;;;;;4.13;2.10;;;;;;;15.43;100.00;101709.50;4914497;28;20086;-76
2022/08/01 04:30:44;;;;;;;4.65;1.88;;;;;;;15.40;100.00;101709.66;4882119;28;20043;-76
2022/08/01 04:33:11;;;;;;;5.32;1.92;;;;;;;15.35;100.00;101701.91;4897866;28;20090;-76
2022/08/01 04:35:38;;;;;;;5.82;1.80;;;;;;;15.32;100.00;101721.59;4915115;28;21514;-77
2022/08/01 04:38:04;;;;;;;6.13;2.08;;;;;;;15.29;100.00;101716.44;4900017;28;20506;-76
2022/08/01 04:40:30;;;;;;;6.65;1.60;;;;;;;15.29;100.00;101718.22;4887136;28;22774;-77
2022/08/01 04:42:55;;;;;;;4.43;1.80;;;;;;;15.26;100.00;101724.56;4917275;28;20035;-76
2022/08/01 04:45:21;;;;;;;7.55;1.70;;;;;;;15.21;100.00;101730.16;4914249;28;20039;-76
2022/08/01 04:47:47;;;;;;;5.28;1.67;;;;;;;15.20;100.00;101735.59;4899531;28;20032;-77
2022/08/01 04:50:13;;;;;;;3.40;1.50;;;;;;;15.19;100.00;101750.72;4902572;28;20579;-76
2022/08/01 04:52:41;;;;;;;6.97;1.83;;;;;;;15.20;100.00;101747.09;4901731;28;20039;-76
2022/08/01 04:55:08;;;;;;;5.00;1.63;;;;;;;15.20;100.00;101748.91;4916827;28;20051;-76
2022/08/01 04:57:37;;;;;;;5.72;1.50;;;;;;;15.19;100.00;101757.84;4898394;28;20038;-77
2022/08/01 05:00:04;;;;;;;6.43;1.85;;;;;;;15.17;100.00;101757.06;4901375;28;20153;-77
2022/08/01 05:02:29;;;;;;;3.83;1.42;;;;;;;15.19;100.00;101760.50;4900007;28;20159;-76
2022/08/01 05:04:55;;;;;;;6.45;1.83;;;;;;;15.17;100.00;101757.94;4915324;28;20039;-77
2022/08/01 05:07:21;;;;;;;5.45;1.90;;;;;;;15.18;100.00;101761.44;4915803;28;20444;-76
2022/08/01 05:09:46;;;;;;;7.97;1.73;;;;;;;15.19;100.00;101768.50;4898766;28;20553;-77
2022/08/01 05:12:12;;;;;;;4.68;1.70;;;;;;;15.20;100.00;101770.25;4899844;28;20035;-76
2022/08/01 05:14:38;;;;;;;8.55;1.95;;;;;;;15.20;100.00;101771.09;4895965;28;20036;-76
2022/08/01 05:17:06;;;;;;;5.32;1.85;;;;;;;15.21;100.00;101774.66;4896739;28;20082;-76
2022/08/01 05:19:38;;;;;;;6.55;1.80;;;;;;;15.22;100.00;101773.69;4896851;28;20070;-77
2022/08/01 05:22:08;;;;;;;6.95;1.90;;;;;;;15.21;100.00;101771.97;4913756;28;20051;-77
2022/08/01 05:24:34;;;;;;;8.18;2.47;;;;;;;15.22;100.00;101773.69;4915905;28;20047;-76
2022/08/01 05:27:00;;;;;;;6.70;1.85;;;;;;;15.26;100.00;101777.06;4915666;28;20374;-76
2022/08/01 05:29:26;;;;;;;5.20;1.70;;;;;;;15.24;100.00;101774.47;4904090;28;20138;-76
2022/08/01 05:31:52;;;;;;;6.25;1.92;;;;;;;15.27;100.00;101777.00;4914383;28;20028;-76
2022/08/01 05:34:36;;;;;;;5.88;1.90;;;;;;;15.28;100.00;101773.38;4898137;28;20394;-76
2022/08/01 05:37:02;;;;;;;4.50;1.77;;;;;;;15.31;100.00;101775.03;4912176;28;20485;-76
2022/08/01 05:39:28;;;;;;;4.57;1.45;;;;;;;15.32;100.00;101780.28;4913416;28;20043;-76
2022/08/01 05:41:53;;;;;;;6.25;1.83;;;;;;;15.34;100.00;101778.41;4896175;28;20035;-77
2022/08/01 05:44:18;;;;;;;6.97;1.67;;;;;;;15.37;100.00;101774.72;4886913;28;20058;-77
2022/08/01 05:46:44;;;;;;;8.10;1.73;;;;;;;15.39;100.00;101770.16;4900617;28;20039;-76
2022/08/01 05:49:09;;;;;;;4.88;1.70;;;;;;;15.38;100.00;101781.78;4899600;28;20183;-76
2022/08/01 05:51:35;;;;;;;9.55;2.25;;;;;;;15.39;100.00;101779.97;4899868;28;20046;-76
2022/08/01 05:54:00;;;;;;;7.65;2.25;;;;;;;15.40;100.00;101779.03;4901301;28;20023;-76
2022/08/01 05:56:26;;;;;;;7.38;2.20;;;;;;;15.45;100.00;101777.00;4914754;28;20486;-75
2022/08/01 05:58:52;;;;;;;5.10;1.90;;;;;;;15.45;100.00;101787.66;4916033;28;20039;-75
2022/08/01 06:01:18;;;;;;;8.90;1.98;;;;;;;15.48;100.00;101787.53;4914431;28;20035;-75
2022/08/01 06:03:44;;;;;;;8.00;2.03;;;;;;;15.52;100.00;101782.88;4915305;28;20087;-75
2022/08/01 06:06:10;;;;;;;4.63;1.65;;;;;;;15.53;100.00;101788.13;4900571;28;20031;-75
2022/08/01 06:08:35;;;;;;;4.68;1.50;;;;;;;15.56;100.00;101790.66;4899297;28;20051;-75
2022/08/01 06:11:01;;;;;;;3.75;2.03;;;;;;;15.60;100.00;101791.34;4916352;28;20052;-77
2022/08/01 06:13:27;;;;;;;7.22;2.35;;;;;;;15.63;100.00;101788.50;4915881;28;20047;-75
2022/08/01 06:15:52;;;;;;;6.13;2.25;;;;;;;15.69;100.00;101795.34;4915406;28;20027;-74
2022/08/01 06:18:18;;;;;;;7.10;1.92;;;;;;;15.69;100.00;101792.69;4917434;28;20133;-75
2022/08/01 06:20:43;;;;;;;4.45;1.95;;;;;;;15.69;100.00;101790.03;4917903;28;20043;-75
2022/08/01 06:23:09;;;;;;;5.63;1.80;;;;;;;15.68;100.00;101796.31;4919959;28;20047;-75
2022/08/01 06:25:35;;;;;;;5.13;1.50;;;;;;;15.73;100.00;101802.25;4904356;28;20042;-75
2022/08/01 06:28:00;;;;;;;5.85;1.73;;;;;;;15.78;100.00;101800.19;4920656;28;20027;-75
2022/08/01 06:30:26;;;;;;;5.78;1.30;;;;;;;15.80;100.00;101806.31;4907061;28;20547;-77
2022/08/01 06:32:52;;;;;;;6.30;1.90;;;;;;;15.82;100.00;101807.13;4920893;28;20050;-76
2022/08/01 06:35:18;;;;;;;9.15;2.05;;;;;;;15.88;100.00;101812.16;4919859;28;20039;-76
2022/08/01 06:37:44;;;;;;;6.95;1.83;;;;;;;15.88;100.00;101809.47;4902573;28;20225;-76
2022/08/01 06:40:11;;;;;;;4.57;1.30;;;;;;;15.91;100.00;101811.09;4902604;28;20624;-76
2022/08/01 06:42:37;;;;;;;3.67;1.80;;;;;;;15.96;100.00;101813.56;4905329;28;20106;-77
2022/08/01 06:45:07;;;;;;;4.15;1.40;;;;;;;16.00;100.00;101818.66;4919993;28;20479;-77
2022/08/01 06:47:33;;;;;;;6.55;1.58;;;;;;;16.01;100.00;101817.72;4903059;28;20087;-76
2022/08/01 06:49:58;;;;;;;4.10;1.30;;;;;;;16.10;100.00;101818.16;4905449;28;20109;-77
2022/08/01 06:52:24;;;;;;;4.03;1.58;;;;;;;16.22;100.00;101820.19;4920534;28;20035;-76
2022/08/01 06:54:49;;;;;;;4.72;1.50;;;;;;;16.41;100.00;101817.38;4919897;28;20057;-76
2022/08/01 06:57:15;;;;;;;6.72;1.33;;;;;;;16.61;100.00;101827.91;4920063;28;20437;-76
2022/08/01 06:59:40;;;;;;;6.68;1.90;;;;;;;16.69;100.00;101818.50;4922283;28;20043;-76
2022/08/01 07:02:07;;;;;;;5.35;1.80;;;;;;;16.80;100.00;101819.72;4921391;28;20039;-76
2022/08/01 07:04:33;;;;;;;3.55;1.20;;;;;;;16.92;100.00;101828.84;4924208;28;20043;-76
2022/08/01 07:06:59;;;;;;;4.90;1.40;;;;;;;17.04;100.00;101828.19;4921407;28;20868;-76
2022/08/01 07:09:25;;;;;;;7.55;1.73;;;;;;;17.16;100.00;101825.78;4920403;28;20047;-76
2022/08/01 07:11:52;;;;;;;5.45;1.40;;;;;;;17.26;100.00;101821.59;4903313;28;20040;-73
2022/08/01 07:14:18;;;;;;;2.67;1.30;;;;;;;17.35;100.00;101820.19;4920035;28;20091;-76
2022/08/01 07:16:43;;;;;;;4.45;1.25;;;;;;;17.47;100.00;101826.63;4919140;28;21110;-73
2022/08/01 07:19:09;;;;;;;3.95;1.63;;;;;;;17.54;100.00;101825.31;4905112;28;20394;-74
2022/08/01 07:21:34;;;;;;;2.38;1.40;;;;;;;17.57;100.00;101829.63;4903963;28;20127;-74
2022/08/01 07:24:00;;;;;;;2.83;1.10;;;;;;;17.61;100.00;101828.50;4921535;28;20041;-74
2022/08/01 07:26:27;;;;;;;2.50;1.10;;;;;;;17.65;100.00;101832.69;4920629;28;20368;-76
2022/08/01 07:28:52;;;;;;;2.83;1.13;;;;;;;17.69;100.00;101834.25;4890928;28;20062;-74
2022/08/01 07:31:18;;;;;;;2.95;1.20;;;;;;;17.75;100.00;101839.25;4885506;28;20031;-74
2022/08/01 07:33:44;;;;;;;2.17;1.15;;;;;;;17.80;100.00;101814.84;4919098;28;20036;-74
2022/08/01 07:36:09;;;;;;;2.40;1.30;;;;;;;17.82;100.00;101833.50;4902191;28;20039;-74
2022/08/01 07:38:35;;;;;;;4.55;1.05;;;;;;;17.76;100.00;101832.06;4902944;28;20478;-74
2022/08/01 07:41:00;;;;;;;4.60;1.30;;;;;;;17.78;100.00;101838.19;4921775;28;20122;-75
2022/08/01 07:43:26;;;;;;;2.40;1.08;;;;;;;17.86;100.00;101837.75;4907317;28;20373;-75
2022/08/01 07:45:51;;;;;;;5.78;1.20;;;;;;;17.98;100.00;101836.97;4890722;28;20686;-75
2022/08/01 07:48:17;;;;;;;1.50;0.95;;;;;;;18.00;100.00;101847.59;4905553;28;20047;-75
2022/08/01 07:50:42;;;;;;;2.50;0.85;;;;;;;18.08;100.00;101845.31;4903273;28;20482;-75
2022/08/01 07:53:10;;;;;;;6.32;1.30;;;;;;;18.22;100.00;101849.84;4902023;28;20106;-76
2022/08/01 07:55:35;;;;;;;3.65;1.00;;;;;;;18.28;99.37;101860.19;4890470;28;20553;-75
2022/08/01 07:58:01;;;;;;;4.70;0.93;;;;;;;18.36;99.93;101858.84;4903692;28;20046;-75
2022/08/01 08:00:28;;;;;;;6.07;1.02;;;;;;;18.44;98.97;101859.22;4898953;28;20043;-76
2022/08/01 08:02:59;;;;;;;3.80;0.90;;;;;;;18.49;99.91;101867.84;4891081;28;20391;-75
2022/08/01 08:05:25;;;;;;;3.05;1.02;;;;;;;18.61;99.18;101860.00;4901782;28;21413;-75
2022/08/01 08:07:50;;;;;;;2.58;0.90;;;;;;;18.70;97.57;101868.28;4991354;23;20064;-78
2022/08/01 08:10:16;;;;;;;2.88;0.90;;;;;;;18.77;95.46;101865.22;4885918;29;20067;-78
2022/08/01 08:12:41;;;;;;;3.08;0.90;;;;;;;18.83;96.04;101871.06;4900996;29;20046;-77
2022/08/01 08:15:07;;;;;;;2.53;0.93;;;;;;;18.90;94.47;101876.03;4900896;29;20068;-77
2022/08/01 08:17:33;;;;;;;3.95;1.05;;;;;;;18.97;95.19;101877.34;4900728;29;20046;-78
2022/08/01 08:19:59;;;;;;;2.90;0.80;;;;;;;19.06;93.14;101878.59;4886346;29;20407;-79
2022/08/01 08:22:24;;;;;;;3.70;1.30;;;;;;;19.06;93.08;101871.41;4886554;29;20043;-79
2022/08/01 08:24:50;;;;;;;1.60;0.80;;;;;;;19.00;90.13;101886.06;4902422;29;20035;-78
2022/08/01 08:27:15;;;;;;;3.30;1.23;;;;;;;18.94;88.47;101875.72;4871040;29;20553;-78
2022/08/01 08:29:41;;;;;;;1.48;0.77;;;;;;;18.96;89.43;101878.31;4886690;29;20430;-79
2022/08/01 08:32:07;;;;;;;4.65;1.10;;;;;;;18.90;89.79;101873.34;4904461;29;20046;-79
2022/08/01 08:34:33;;;;;;;1.75;0.95;;;;;;;18.99;91.94;101883.47;4900800;29;20031;-78
2022/08/01 08:36:59;;;;;;;3.67;1.00;;;;;;;19.11;91.04;101885.38;4886645;29;20032;-78
2022/08/01 08:39:26;;;;;;;4.97;1.00;;;;;;;19.04;90.85;101889.44;4886422;29;20328;-80
2022/08/01 08:41:52;;;;;;;3.78;1.20;;;;;;;19.00;91.59;101896.78;4888731;29;20040;-81
2022/08/01 08:44:19;;;;;;;1.77;1.02;;;;;;;19.05;91.89;101891.16;4911342;29;20035;-82
2022/08/01 08:46:55;;;;;;;4.75;1.20;;;;;;;19.05;85.58;101887.59;4911441;29;20182;-82
2022/08/01 08:49:27;;;;;;;1.30;0.82;;;;;;;19.08;88.72;101893.66;4914113;29;20066;-81
2022/08/01 08:51:53;;;;;;;5.45;1.20;;;;;;;19.14;89.93;101893.22;4912809;29;20483;-82
2022/08/01 08:54:22;;;;;;;3.85;0.95;;;;;;;19.10;88.65;101899.78;4889721;29;20438;-82
2022/08/01 08:56:47;;;;;;;2.55;0.88;;;;;;;19.00;88.51;101896.78;4906570;29;20055;-81
2022/08/01 08:59:14;;;;;;;3.15;0.80;;;;;;;18.93;89.88;101908.00;4888500;29;20119;-81
2022/08/01 09:01:40;;;;;;;1.05;0.65;;;;;;;18.99;89.74;101911.16;4890550;29;20191;-82
2022/08/01 09:04:06;;;;;;;2.22;0.80;;;;;;;19.09;89.22;101911.47;4905605;29;20031;-82
2022/08/01 09:06:32;;;;;;;1.70;0.70;;;;;;;19.18;89.93;101904.63;4908976;29;20538;-82
2022/08/01 09:08:58;;;;;;;1.13;0.80;;;;;;;19.31;89.33;101904.69;4908244;29;20459;-82
2022/08/01 09:11:24;;;;;;;1.63;0.70;;;;;;;19.29;84.26;101903.06;4907286;29;23337;-78
2022/08/01 09:14:13;;;;;;;3.25;0.90;;;;;;;19.27;86.78;101911.22;4890028;29;20040;-82
2022/08/01 09:16:44;;;;;;;2.50;1.00;;;;;;;19.25;85.11;101916.69;4906599;29;20612;-82
2022/08/01 09:19:15;;;;;;;1.73;1.08;;;;;;;19.20;84.94;101916.13;4906375;29;20047;-81
2022/08/01 09:21:57;;;;;;;2.60;0.68;;;;;;;19.11;81.61;101908.66;4905955;29;20479;-81
2022/08/01 09:24:24;;;;;;;4.55;1.02;;;;;;;19.11;84.59;101909.53;4888847;29;20036;-81
2022/08/01 09:26:50;;;;;;;3.10;0.57;;;;;;;19.13;83.84;101915.66;4906897;29;20027;-80
2022/08/01 09:29:22;;;;;;;3.15;0.70;;;;;;;19.10;83.94;101915.00;4887327;29;20042;-79
2022/08/01 09:31:49;;;;;;;3.63;1.20;;;;;;;19.08;85.35;101915.13;4888863;29;20327;-80
2022/08/01 09:34:16;;;;;;;6.30;0.80;;;;;;;19.07;86.18;101920.56;4905529;29;20040;-82
2022/08/01 09:36:51;;;;;;;3.45;0.90;;;;;;;18.97;82.65;101920.28;4876387;29;20035;-82
2022/08/01 09:39:25;;;;;;;0.57;0.57;;;;;;;18.91;83.44;101931.41;4905507;29;20158;-76
2022/08/01 09:41:51;;;;;;;2.85;0.65;;;;;;;18.94;84.94;101920.47;4906839;29;20027;-77
2022/08/01 09:44:44;;;;;;;1.98;0.80;;;;;;;19.04;79.43;101929.69;4890163;29;21619;-76
2022/08/01 09:47:10;;;;;;;3.58;0.82;;;;;;;19.05;81.85;101926.03;4884881;29;20047;-77
2022/08/01 09:49:37;;;;;;;3.00;0.80;;;;;;;19.21;83.62;101931.28;4887498;29;20158;-76
2022/08/01 09:52:32;;;;;;;2.42;0.82;;;;;;;19.38;79.81;101931.97;4870592;29;20394;-76
2022/08/01 09:55:02;;;;;;;1.13;0.70;;;;;;;19.44;80.91;101941.47;4900539;29;20043;-77
2022/08/01 09:57:28;;;;;;;3.10;0.75;;;;;;;19.50;79.98;101936.53;4892009;29;20419;-77
2022/08/01 09:59:56;;;;;;;2.17;0.80;;;;;;;19.57;80.41;101939.69;4906057;29;20072;-77
2022/08/01 10:02:36;;;;;;;1.90;0.73;;;;;;;19.63;76.77;101936.59;4902998;29;20046;-77
2022/08/01 10:05:04;;;;;;;2.05;0.60;;;;;;;19.56;78.73;101946.03;4889466;29;20090;-76
2022/08/01 10:07:30;;;;;;;1.75;0.70;;;;;;;19.51;77.81;101942.78;4880714;29;20067;-76
2022/08/01 10:09:55;;;;;;;3.22;0.60;;;;;;;19.46;77.25;101943.09;4892488;29;20388;-75
2022/08/01 10:12:23;;;;;;;2.88;0.60;;;;;;;19.45;76.61;101944.03;4909309;29;20051;-77
2022/08/01 10:14:51;;;;;;;4.45;0.90;;;;;;;19.37;77.84;101944.56;4880789;29;20035;-77
2022/08/01 10:17:25;;;;;;;1.75;0.90;;;;;;;19.41;76.88;101946.06;4894040;29;20043;-77
2022/08/01 10:19:54;;;;;;;0.50;0.50;;;;;;;19.45;77.28;101951.25;4907124;29;21604;-76
2022/08/01 10:22:22;;;;;;;4.78;0.70;;;;;;;19.45;75.83;101945.88;4892664;29;20773;-76
2022/08/01 10:24:50;;;;;;;2.28;1.15;;;;;;;19.46;75.60;101951.16;4907433;29;20035;-78
2022/08/01 10:27:18;;;;;;;1.92;0.70;;;;;;;19.39;76.40;101948.00;4888722;29;20063;-77
2022/08/01 10:29:55;;;;;;;1.75;0.52;;;;;;;19.27;75.07;101946.09;4874207;29;20051;-77
2022/08/01 10:32:24;;;;;;;1.02;0.80;;;;;;;19.22;75.34;101949.09;4905982;29;20111;-78
2022/08/01 10:34:50;;;;;;;3.47;1.00;;;;;;;19.21;74.59;101946.50;4892177;29;20708;-77
2022/08/01 10:37:25;;;;;;;3.65;0.63;;;;;;;19.17;73.54;101943.16;4913244;29;20769;-77
2022/08/01 10:39:51;;;;;;;0.80;0.73;;;;;;;19.17;74.69;101940.47;4885906;29;20797;-77
2022/08/01 10:42:17;;;;;;;3.55;0.70;;;;;;;19.19;73.59;101949.31;4910045;29;20497;-77
2022/08/01 10:44:47;;;;;;;0.93;0.60;;;;;;;19.09;73.69;101956.22;4911853;29;20174;-77
2022/08/01 10:47:14;;;;;;;2.03;0.70;;;;;;;19.11;74.11;101947.13;4907703;29;22094;-77
2022/08/01 10:50:07;;;;;;;1.15;0.73;;;;;;;19.19;74.17;101943.06;4894620;29;20043;-77
2022/08/01 10:52:35;;;;;;;2.45;0.70;;;;;;;19.21;73.69;101933.09;4888377;29;20044;-78
2022/08/01 10:55:05;;;;;;;2.05;1.00;;;;;;;19.22;74.12;101949.09;4910260;29;20047;-81
2022/08/01 10:57:47;;;;;;;1.52;0.70;;;;;;;19.20;70.71;101945.66;4894327;29;20039;-82
2022/08/01 11:00:22;;;;;;;5.47;0.98;;;;;;;19.32;74.04;101944.00;4890271;29;20035;-82
2022/08/01 11:03:03;;;;;;;1.67;0.65;;;;;;;19.37;68.75;101946.38;4905663;29;20604;-81
2022/08/01 11:05:35;;;;;;;1.60;0.65;;;;;;;19.21;71.32;101949.19;4908807;29;20086;-81
2022/08/01 11:08:21;;;;;;;2.00;0.82;;;;;;;19.17;71.71;101945.84;4872341;29;20071;-81
2022/08/01 11:10:47;;;;;;;2.00;0.70;;;;;;;19.23;73.32;101947.28;4877596;29;20589;-81
2022/08/01 11:13:13;;;;;;;4.43;0.70;;;;;;;19.34;73.81;101946.59;4904776;29;21425;-78
2022/08/01 11:15:40;;;;;;;6.20;1.00;;;;;;;19.28;73.18;101947.81;4892166;29;20766;-80
2022/08/01 11:18:27;;;;;;;2.67;0.73;;;;;;;19.24;71.90;101952.53;4892196;29;20095;-78
2022/08/01 11:20:58;;;;;;;2.03;0.82;;;;;;;19.22;72.38;101943.72;4907368;29;20050;-79
2022/08/01 11:23:27;;;;;;;3.63;0.90;;;;;;;19.23;72.75;101956.19;4890709;29;20083;-79